sensor_id;sensor_type;location;lat;lon;timestamp;pressure;altitude;pressure_sealevel;temperature
9119;BMP180;4594;50.994;7.126;2023-02-16T00:00:22;101564.00;;;9.70
9119;BMP180;4594;50.994;7.126;2023-02-16T00:02:48;101559.00;;;9.70
9119;BMP180;4594;50.994;7.126;2023-02-16T00:05:31;101565.00;;;9.70
9119;BMP180;4594;50.994;7.126;2023-02-16T00:07:58;101558.00;;;9.70
9119;BMP180;4594;50.994;7.126;2023-02-16T00:10:30;101564.00;;;9.70
9119;BMP180;4594;50.994;7.126;2023-02-16T00:12:56;101557.00;;;9.60
9119;BMP180;4594;50.994;7.126;2023-02-16T00:15:41;101568.00;;;9.60
9119;BMP180;4594;50.994;7.126;2023-02-16T00:18:17;101567.00;;;9.50
9119;BMP180;4594;50.994;7.126;2023-02-16T00:20:44;101564.00;;;9.50
9119;BMP180;4594;50.994;7.126;2023-02-16T00:23:10;101565.00;;;9.50
9119;BMP180;4594;50.994;7.126;2023-02-16T00:25:36;101562.00;;;9.40
9119;BMP180;4594;50.994;7.126;2023-02-16T00:28:17;101562.00;;;9.40
9119;BMP180;4594;50.994;7.126;2023-02-16T00:30:44;101563.00;;;9.40
9119;BMP180;4594;50.994;7.126;2023-02-16T00:33:19;101563.00;;;9.30
9119;BMP180;4594;50.994;7.126;2023-02-16T00:35:46;101563.00;;;9.30
9119;BMP180;4594;50.994;7.126;2023-02-16T00:38:13;101569.00;;;9.30
9119;BMP180;4594;50.994;7.126;2023-02-16T00:40:40;101558.00;;;9.20
9119;BMP180;4594;50.994;7.126;2023-02-16T00:43:09;101543.00;;;9.20
9119;BMP180;4594;50.994;7.126;2023-02-16T00:45:37;101543.00;;;9.10
9119;BMP180;4594;50.994;7.126;2023-02-16T00:48:03;101546.00;;;9.10
9119;BMP180;4594;50.994;7.126;2023-02-16T00:50:33;101539.00;;;9.10
9119;BMP180;4594;50.994;7.126;2023-02-16T00:53:00;101542.00;;;9.00
9119;BMP180;4594;50.994;7.126;2023-02-16T00:55:35;101557.00;;;9.00
9119;BMP180;4594;50.994;7.126;2023-02-16T00:58:27;101546.00;;;9.00
9119;BMP180;4594;50.994;7.126;2023-02-16T01:01:00;101549.00;;;8.90
9119;BMP180;4594;50.994;7.126;2023-02-16T01:03:28;101553.00;;;8.90
9119;BMP180;4594;50.994;7.126;2023-02-16T01:05:54;101557.00;;;8.90
9119;BMP180;4594;50.994;7.126;2023-02-16T01:08:39;101555.00;;;8.90
9119;BMP180;4594;50.994;7.126;2023-02-16T01:11:25;101553.00;;;8.80
9119;BMP180;4594;50.994;7.126;2023-02-16T01:13:53;101538.00;;;8.80
9119;BMP180;4594;50.994;7.126;2023-02-16T01:16:26;101539.00;;;8.80
9119;BMP180;4594;50.994;7.126;2023-02-16T01:18:55;101537.00;;;8.70
9119;BMP180;4594;50.994;7.126;2023-02-16T01:21:21;101534.00;;;8.70
9119;BMP180;4594;50.994;7.126;2023-02-16T01:23:47;101534.00;;;8.70
9119;BMP180;4594;50.994;7.126;2023-02-16T01:26:16;101539.00;;;8.70
9119;BMP180;4594;50.994;7.126;2023-02-16T01:28:43;101537.00;;;8.60
9119;BMP180;4594;50.994;7.126;2023-02-16T01:31:11;101527.00;;;8.60
9119;BMP180;4594;50.994;7.126;2023-02-16T01:33:37;101520.00;;;8.60
9119;BMP180;4594;50.994;7.126;2023-02-16T01:36:04;101525.00;;;8.60
9119;BMP180;4594;50.994;7.126;2023-02-16T01:38:30;101527.00;;;8.60
9119;BMP180;4594;50.994;7.126;2023-02-16T01:41:39;101528.00;;;8.50
9119;BMP180;4594;50.994;7.126;2023-02-16T01:44:23;101526.00;;;8.50
9119;BMP180;4594;50.994;7.126;2023-02-16T01:49:52;101527.00;;;8.50
9119;BMP180;4594;50.994;7.126;2023-02-16T01:52:37;101517.00;;;8.40
9119;BMP180;4594;50.994;7.126;2023-02-16T01:55:21;101522.00;;;8.40
9119;BMP180;4594;50.994;7.126;2023-02-16T01:58:01;101520.00;;;8.30
9119;BMP180;4594;50.994;7.126;2023-02-16T02:03:34;101520.00;;;8.30
9119;BMP180;4594;50.994;7.126;2023-02-16T02:06:31;101528.00;;;8.20
9119;BMP180;4594;50.994;7.126;2023-02-16T02:09:55;101521.00;;;8.20
9119;BMP180;4594;50.994;7.126;2023-02-16T02:12:39;101521.00;;;8.10
9119;BMP180;4594;50.994;7.126;2023-02-16T02:15:09;101519.00;;;8.10
9119;BMP180;4594;50.994;7.126;2023-02-16T02:17:35;101512.00;;;8.10
9119;BMP180;4594;50.994;7.126;2023-02-16T02:23:47;101512.00;;;8.00
9119;BMP180;4594;50.994;7.126;2023-02-16T02:29:37;101504.00;;;7.90
9119;BMP180;4594;50.994;7.126;2023-02-16T02:32:53;101506.00;;;7.80
9119;BMP180;4594;50.994;7.126;2023-02-16T02:35:53;101496.00;;;7.80
9119;BMP180;4594;50.994;7.126;2023-02-16T02:38:41;101507.00;;;7.80
9119;BMP180;4594;50.994;7.126;2023-02-16T02:43:56;101496.00;;;7.80
9119;BMP180;4594;50.994;7.126;2023-02-16T02:46:29;101505.00;;;7.80
9119;BMP180;4594;50.994;7.126;2023-02-16T02:48:56;101498.00;;;7.80
9119;BMP180;4594;50.994;7.126;2023-02-16T02:51:22;101494.00;;;7.80
9119;BMP180;4594;50.994;7.126;2023-02-16T03:05:44;101479.00;;;7.70
9119;BMP180;4594;50.994;7.126;2023-02-16T03:08:15;101479.00;;;7.70
9119;BMP180;4594;50.994;7.126;2023-02-16T03:10:51;101479.00;;;7.70
9119;BMP180;4594;50.994;7.126;2023-02-16T03:13:43;101488.00;;;7.70
9119;BMP180;4594;50.994;7.126;2023-02-16T03:16:16;101489.00;;;7.70
9119;BMP180;4594;50.994;7.126;2023-02-16T03:18:46;101484.00;;;7.70
9119;BMP180;4594;50.994;7.126;2023-02-16T03:21:32;101473.00;;;7.70
9119;BMP180;4594;50.994;7.126;2023-02-16T03:24:27;101493.00;;;7.70
9119;BMP180;4594;50.994;7.126;2023-02-16T03:27:20;101485.00;;;7.70
9119;BMP180;4594;50.994;7.126;2023-02-16T03:30:07;101468.00;;;7.60
9119;BMP180;4594;50.994;7.126;2023-02-16T03:32:33;101479.00;;;7.70
9119;BMP180;4594;50.994;7.126;2023-02-16T03:34:59;101470.00;;;7.70
9119;BMP180;4594;50.994;7.126;2023-02-16T03:37:25;101469.00;;;7.70
9119;BMP180;4594;50.994;7.126;2023-02-16T03:39:51;101460.00;;;7.60
9119;BMP180;4594;50.994;7.126;2023-02-16T03:42:36;101455.00;;;7.60
9119;BMP180;4594;50.994;7.126;2023-02-16T03:45:02;101446.00;;;7.70
9119;BMP180;4594;50.994;7.126;2023-02-16T03:47:28;101453.00;;;7.70
9119;BMP180;4594;50.994;7.126;2023-02-16T03:49:53;101446.00;;;7.70
9119;BMP180;4594;50.994;7.126;2023-02-16T03:52:19;101450.00;;;7.70
9119;BMP180;4594;50.994;7.126;2023-02-16T03:54:45;101459.00;;;7.70
9119;BMP180;4594;50.994;7.126;2023-02-16T03:57:10;101451.00;;;7.60
9119;BMP180;4594;50.994;7.126;2023-02-16T03:59:36;101465.00;;;7.70
9119;BMP180;4594;50.994;7.126;2023-02-16T04:02:02;101471.00;;;7.70
9119;BMP180;4594;50.994;7.126;2023-02-16T04:04:27;101462.00;;;7.70
9119;BMP180;4594;50.994;7.126;2023-02-16T04:06:53;101461.00;;;7.70
9119;BMP180;4594;50.994;7.126;2023-02-16T04:09:19;101471.00;;;7.70
9119;BMP180;4594;50.994;7.126;2023-02-16T04:11:44;101462.00;;;7.70
9119;BMP180;4594;50.994;7.126;2023-02-16T04:14:28;101470.00;;;7.70
9119;BMP180;4594;50.994;7.126;2023-02-16T04:16:54;101466.00;;;7.70
9119;BMP180;4594;50.994;7.126;2023-02-16T04:19:21;101442.00;;;7.70
9119;BMP180;4594;50.994;7.126;2023-02-16T04:21:49;101460.00;;;7.70
9119;BMP180;4594;50.994;7.126;2023-02-16T04:24:17;101458.00;;;7.70
9119;BMP180;4594;50.994;7.126;2023-02-16T04:26:43;101461.00;;;7.70
9119;BMP180;4594;50.994;7.126;2023-02-16T04:29:10;101458.00;;;7.70
9119;BMP180;4594;50.994;7.126;2023-02-16T04:31:36;101465.00;;;7.70
9119;BMP180;4594;50.994;7.126;2023-02-16T04:34:02;101457.00;;;7.70
9119;BMP180;4594;50.994;7.126;2023-02-16T04:36:27;101463.00;;;7.70
9119;BMP180;4594;50.994;7.126;2023-02-16T04:38:53;101465.00;;;7.70
9119;BMP180;4594;50.994;7.126;2023-02-16T04:41:19;101456.00;;;7.70
9119;BMP180;4594;50.994;7.126;2023-02-16T04:43:45;101447.00;;;7.70
9119;BMP180;4594;50.994;7.126;2023-02-16T04:46:10;101455.00;;;7.70
9119;BMP180;4594;50.994;7.126;2023-02-16T04:48:36;101455.00;;;7.70
9119;BMP180;4594;50.994;7.126;2023-02-16T04:51:05;101453.00;;;7.70
9119;BMP180;4594;50.994;7.126;2023-02-16T04:53:31;101452.00;;;7.70
9119;BMP180;4594;50.994;7.126;2023-02-16T04:55:56;101454.00;;;7.80
9119;BMP180;4594;50.994;7.126;2023-02-16T04:58:22;101463.00;;;7.80
9119;BMP180;4594;50.994;7.126;2023-02-16T05:00:47;101454.00;;;7.80
9119;BMP180;4594;50.994;7.126;2023-02-16T05:03:13;101444.00;;;7.80
9119;BMP180;4594;50.994;7.126;2023-02-16T05:05:40;101456.00;;;7.80
9119;BMP180;4594;50.994;7.126;2023-02-16T05:08:05;101447.00;;;7.80
9119;BMP180;4594;50.994;7.126;2023-02-16T05:10:31;101462.00;;;7.80
9119;BMP180;4594;50.994;7.126;2023-02-16T05:12:57;101458.00;;;7.80
9119;BMP180;4594;50.994;7.126;2023-02-16T05:15:41;101459.00;;;7.80
9119;BMP180;4594;50.994;7.126;2023-02-16T05:18:07;101451.00;;;7.90
9119;BMP180;4594;50.994;7.126;2023-02-16T05:20:32;101434.00;;;7.90
9119;BMP180;4594;50.994;7.126;2023-02-16T05:23:16;101456.00;;;7.90
9119;BMP180;4594;50.994;7.126;2023-02-16T05:25:42;101456.00;;;7.90
9119;BMP180;4594;50.994;7.126;2023-02-16T05:28:08;101449.00;;;7.90
9119;BMP180;4594;50.994;7.126;2023-02-16T05:30:33;101443.00;;;7.90
9119;BMP180;4594;50.994;7.126;2023-02-16T05:32:59;101458.00;;;7.90
9119;BMP180;4594;50.994;7.126;2023-02-16T05:35:25;101453.00;;;7.90
9119;BMP180;4594;50.994;7.126;2023-02-16T05:37:50;101455.00;;;7.90
9119;BMP180;4594;50.994;7.126;2023-02-16T05:40:16;101455.00;;;7.90
9119;BMP180;4594;50.994;7.126;2023-02-16T05:42:42;101458.00;;;7.90
9119;BMP180;4594;50.994;7.126;2023-02-16T05:45:08;101462.00;;;7.90
9119;BMP180;4594;50.994;7.126;2023-02-16T05:47:34;101455.00;;;7.90
9119;BMP180;4594;50.994;7.126;2023-02-16T05:50:00;101455.00;;;7.90
9119;BMP180;4594;50.994;7.126;2023-02-16T05:52:25;101467.00;;;7.90
9119;BMP180;4594;50.994;7.126;2023-02-16T05:54:51;101473.00;;;7.90
9119;BMP180;4594;50.994;7.126;2023-02-16T05:57:17;101463.00;;;7.90
9119;BMP180;4594;50.994;7.126;2023-02-16T05:59:42;101464.00;;;7.90
9119;BMP180;4594;50.994;7.126;2023-02-16T06:02:08;101464.00;;;7.90
9119;BMP180;4594;50.994;7.126;2023-02-16T06:04:34;101449.00;;;7.90
9119;BMP180;4594;50.994;7.126;2023-02-16T06:07:01;101460.00;;;7.90
9119;BMP180;4594;50.994;7.126;2023-02-16T06:09:27;101460.00;;;7.90
9119;BMP180;4594;50.994;7.126;2023-02-16T06:11:52;101466.00;;;8.00
9119;BMP180;4594;50.994;7.126;2023-02-16T06:14:20;101460.00;;;8.00
9119;BMP180;4594;50.994;7.126;2023-02-16T06:16:48;101469.00;;;8.00
9119;BMP180;4594;50.994;7.126;2023-02-16T06:19:18;101459.00;;;8.00
9119;BMP180;4594;50.994;7.126;2023-02-16T06:21:44;101455.00;;;8.00
9119;BMP180;4594;50.994;7.126;2023-02-16T06:24:12;101468.00;;;8.00
9119;BMP180;4594;50.994;7.126;2023-02-16T06:26:38;101471.00;;;8.10
9119;BMP180;4594;50.994;7.126;2023-02-16T06:29:04;101473.00;;;8.10
9119;BMP180;4594;50.994;7.126;2023-02-16T06:31:30;101458.00;;;8.10
9119;BMP180;4594;50.994;7.126;2023-02-16T06:33:56;101448.00;;;8.10
9119;BMP180;4594;50.994;7.126;2023-02-16T06:36:23;101466.00;;;8.10
9119;BMP180;4594;50.994;7.126;2023-02-16T06:38:50;101459.00;;;8.10
9119;BMP180;4594;50.994;7.126;2023-02-16T06:41:16;101459.00;;;8.10
9119;BMP180;4594;50.994;7.126;2023-02-16T06:43:57;101461.00;;;8.10
9119;BMP180;4594;50.994;7.126;2023-02-16T06:46:23;101458.00;;;8.10
9119;BMP180;4594;50.994;7.126;2023-02-16T06:48:49;101457.00;;;8.20
9119;BMP180;4594;50.994;7.126;2023-02-16T06:51:18;101454.00;;;8.20
9119;BMP180;4594;50.994;7.126;2023-02-16T06:53:45;101449.00;;;8.30
9119;BMP180;4594;50.994;7.126;2023-02-16T06:56:10;101468.00;;;8.30
9119;BMP180;4594;50.994;7.126;2023-02-16T06:58:36;101470.00;;;8.40
9119;BMP180;4594;50.994;7.126;2023-02-16T07:01:02;101472.00;;;8.50
9119;BMP180;4594;50.994;7.126;2023-02-16T07:03:27;101468.00;;;8.60
9119;BMP180;4594;50.994;7.126;2023-02-16T07:05:53;101480.00;;;8.70
9119;BMP180;4594;50.994;7.126;2023-02-16T07:08:19;101479.00;;;8.80
9119;BMP180;4594;50.994;7.126;2023-02-16T07:10:46;101481.00;;;8.90
9119;BMP180;4594;50.994;7.126;2023-02-16T07:13:12;101485.00;;;9.10
9119;BMP180;4594;50.994;7.126;2023-02-16T07:15:38;101483.00;;;9.30
9119;BMP180;4594;50.994;7.126;2023-02-16T07:18:04;101472.00;;;9.50
9119;BMP180;4594;50.994;7.126;2023-02-16T07:20:30;101481.00;;;9.60
9119;BMP180;4594;50.994;7.126;2023-02-16T07:22:56;101475.00;;;9.90
9119;BMP180;4594;50.994;7.126;2023-02-16T07:25:22;101482.00;;;10.10
9119;BMP180;4594;50.994;7.126;2023-02-16T07:27:50;101492.00;;;10.30
9119;BMP180;4594;50.994;7.126;2023-02-16T07:30:15;101488.00;;;10.60
9119;BMP180;4594;50.994;7.126;2023-02-16T07:32:42;101487.00;;;11.00
9119;BMP180;4594;50.994;7.126;2023-02-16T07:35:08;101498.00;;;11.30
9119;BMP180;4594;50.994;7.126;2023-02-16T07:37:35;101493.00;;;11.40
9119;BMP180;4594;50.994;7.126;2023-02-16T07:40:00;101500.00;;;11.50
9119;BMP180;4594;50.994;7.126;2023-02-16T07:42:31;101484.00;;;11.60
9119;BMP180;4594;50.994;7.126;2023-02-16T07:44:57;101496.00;;;11.60
9119;BMP180;4594;50.994;7.126;2023-02-16T07:47:23;101500.00;;;11.70
9119;BMP180;4594;50.994;7.126;2023-02-16T07:49:50;101506.00;;;11.70
9119;BMP180;4594;50.994;7.126;2023-02-16T07:52:15;101495.00;;;11.70
9119;BMP180;4594;50.994;7.126;2023-02-16T07:54:41;101504.00;;;11.70
9119;BMP180;4594;50.994;7.126;2023-02-16T07:57:08;101485.00;;;11.70
9119;BMP180;4594;50.994;7.126;2023-02-16T07:59:34;101500.00;;;11.70
9119;BMP180;4594;50.994;7.126;2023-02-16T08:01:59;101493.00;;;11.60
9119;BMP180;4594;50.994;7.126;2023-02-16T08:04:25;101502.00;;;11.60
9119;BMP180;4594;50.994;7.126;2023-02-16T08:06:51;101503.00;;;11.60
9119;BMP180;4594;50.994;7.126;2023-02-16T08:09:17;101503.00;;;11.60
9119;BMP180;4594;50.994;7.126;2023-02-16T08:11:43;101505.00;;;11.70
9119;BMP180;4594;50.994;7.126;2023-02-16T08:14:09;101503.00;;;11.70
9119;BMP180;4594;50.994;7.126;2023-02-16T08:16:35;101485.00;;;11.80
9119;BMP180;4594;50.994;7.126;2023-02-16T08:19:02;101491.00;;;11.90
9119;BMP180;4594;50.994;7.126;2023-02-16T08:21:33;101473.00;;;11.90
9119;BMP180;4594;50.994;7.126;2023-02-16T08:24:02;101482.00;;;12.00
9119;BMP180;4594;50.994;7.126;2023-02-16T08:26:37;101494.00;;;12.10
9119;BMP180;4594;50.994;7.126;2023-02-16T08:29:05;101493.00;;;12.10
9119;BMP180;4594;50.994;7.126;2023-02-16T08:31:34;101497.00;;;12.20
9119;BMP180;4594;50.994;7.126;2023-02-16T08:34:02;101492.00;;;12.20
9119;BMP180;4594;50.994;7.126;2023-02-16T08:36:33;101492.00;;;12.20
9119;BMP180;4594;50.994;7.126;2023-02-16T08:39:11;101477.00;;;12.20
9119;BMP180;4594;50.994;7.126;2023-02-16T08:41:38;101472.00;;;12.20
9119;BMP180;4594;50.994;7.126;2023-02-16T08:44:06;101483.00;;;12.30
9119;BMP180;4594;50.994;7.126;2023-02-16T08:46:33;101480.00;;;12.30
9119;BMP180;4594;50.994;7.126;2023-02-16T08:49:00;101490.00;;;12.30
9119;BMP180;4594;50.994;7.126;2023-02-16T08:51:30;101485.00;;;12.30
9119;BMP180;4594;50.994;7.126;2023-02-16T08:53:59;101483.00;;;12.40
9119;BMP180;4594;50.994;7.126;2023-02-16T08:56:27;101480.00;;;12.40
9119;BMP180;4594;50.994;7.126;2023-02-16T08:58:58;101484.00;;;12.40
9119;BMP180;4594;50.994;7.126;2023-02-16T09:01:25;101479.00;;;12.40
9119;BMP180;4594;50.994;7.126;2023-02-16T09:03:51;101492.00;;;12.50
9119;BMP180;4594;50.994;7.126;2023-02-16T09:06:20;101497.00;;;12.60
9119;BMP180;4594;50.994;7.126;2023-02-16T09:08:56;101491.00;;;12.70
9119;BMP180;4594;50.994;7.126;2023-02-16T09:11:23;101497.00;;;12.80
9119;BMP180;4594;50.994;7.126;2023-02-16T09:13:50;101492.00;;;12.90
9119;BMP180;4594;50.994;7.126;2023-02-16T09:16:21;101510.00;;;13.00
9119;BMP180;4594;50.994;7.126;2023-02-16T09:18:48;101503.00;;;13.10
9119;BMP180;4594;50.994;7.126;2023-02-16T09:21:18;101514.00;;;13.10
9119;BMP180;4594;50.994;7.126;2023-02-16T09:23:47;101511.00;;;13.20
9119;BMP180;4594;50.994;7.126;2023-02-16T09:26:18;101510.00;;;13.30
9119;BMP180;4594;50.994;7.126;2023-02-16T09:28:45;101514.00;;;13.40
9119;BMP180;4594;50.994;7.126;2023-02-16T09:31:22;101518.00;;;13.50
9119;BMP180;4594;50.994;7.126;2023-02-16T09:34:01;101516.00;;;13.70
9119;BMP180;4594;50.994;7.126;2023-02-16T09:36:29;101510.00;;;13.90
9119;BMP180;4594;50.994;7.126;2023-02-16T09:38:56;101508.00;;;14.20
9119;BMP180;4594;50.994;7.126;2023-02-16T09:49:56;101491.00;;;15.40
9119;BMP180;4594;50.994;7.126;2023-02-16T09:52:37;101494.00;;;16.30
9119;BMP180;4594;50.994;7.126;2023-02-16T09:55:17;101500.00;;;17.20
9119;BMP180;4594;50.994;7.126;2023-02-16T10:00:46;101515.00;;;18.00
9119;BMP180;4594;50.994;7.126;2023-02-16T10:03:38;101517.00;;;18.10
9119;BMP180;4594;50.994;7.126;2023-02-16T10:09:15;101523.00;;;18.40
9119;BMP180;4594;50.994;7.126;2023-02-16T10:11:48;101523.00;;;18.50
9119;BMP180;4594;50.994;7.126;2023-02-16T10:14:42;101524.00;;;18.40
9119;BMP180;4594;50.994;7.126;2023-02-16T10:17:35;101543.00;;;18.40
9119;BMP180;4594;50.994;7.126;2023-02-16T10:20:30;101534.00;;;18.20
9119;BMP180;4594;50.994;7.126;2023-02-16T10:25:46;101526.00;;;18.00
9119;BMP180;4594;50.994;7.126;2023-02-16T10:28:20;101534.00;;;17.80
9119;BMP180;4594;50.994;7.126;2023-02-16T10:30:57;101524.00;;;17.70
9119;BMP180;4594;50.994;7.126;2023-02-16T10:42:54;101514.00;;;17.10
9119;BMP180;4594;50.994;7.126;2023-02-16T10:45:34;101518.00;;;17.00
9119;BMP180;4594;50.994;7.126;2023-02-16T10:48:01;101524.00;;;17.00
9119;BMP180;4594;50.994;7.126;2023-02-16T10:55:38;101519.00;;;17.00
9119;BMP180;4594;50.994;7.126;2023-02-16T10:58:14;101528.00;;;17.00
9119;BMP180;4594;50.994;7.126;2023-02-16T11:01:09;101523.00;;;17.00
9119;BMP180;4594;50.994;7.126;2023-02-16T11:03:49;101534.00;;;17.00
9119;BMP180;4594;50.994;7.126;2023-02-16T11:06:21;101527.00;;;17.00
9119;BMP180;4594;50.994;7.126;2023-02-16T11:08:55;101520.00;;;17.00
9119;BMP180;4594;50.994;7.126;2023-02-16T11:11:35;101519.00;;;17.00
9119;BMP180;4594;50.994;7.126;2023-02-16T11:14:24;101515.00;;;17.00
9119;BMP180;4594;50.994;7.126;2023-02-16T11:17:12;101501.00;;;16.90
9119;BMP180;4594;50.994;7.126;2023-02-16T11:19:49;101501.00;;;16.90
9119;BMP180;4594;50.994;7.126;2023-02-16T11:22:36;101501.00;;;16.90
9119;BMP180;4594;50.994;7.126;2023-02-16T11:25:21;101494.00;;;16.80
9119;BMP180;4594;50.994;7.126;2023-02-16T11:27:55;101500.00;;;16.80
9119;BMP180;4594;50.994;7.126;2023-02-16T11:30:35;101478.00;;;16.80
9119;BMP180;4594;50.994;7.126;2023-02-16T11:35:46;101496.00;;;16.80
9119;BMP180;4594;50.994;7.126;2023-02-16T11:38:34;101483.00;;;16.80
9119;BMP180;4594;50.994;7.126;2023-02-16T11:41:05;101492.00;;;16.90
9119;BMP180;4594;50.994;7.126;2023-02-16T11:43:36;101483.00;;;16.90
9119;BMP180;4594;50.994;7.126;2023-02-16T11:46:19;101473.00;;;17.00
9119;BMP180;4594;50.994;7.126;2023-02-16T11:48:46;101453.00;;;17.00
9119;BMP180;4594;50.994;7.126;2023-02-16T12:35:11;101423.00;;;17.00
9119;BMP180;4594;50.994;7.126;2023-02-16T12:37:52;101428.00;;;16.90
9119;BMP180;4594;50.994;7.126;2023-02-16T12:40:49;101412.00;;;16.80
9119;BMP180;4594;50.994;7.126;2023-02-16T12:46:10;101426.00;;;16.80
9119;BMP180;4594;50.994;7.126;2023-02-16T12:48:51;101430.00;;;16.80
9119;BMP180;4594;50.994;7.126;2023-02-16T12:51:31;101418.00;;;16.70
9119;BMP180;4594;50.994;7.126;2023-02-16T12:54:09;101421.00;;;16.70
9119;BMP180;4594;50.994;7.126;2023-02-16T12:56:46;101419.00;;;16.60
9119;BMP180;4594;50.994;7.126;2023-02-16T12:59:21;101422.00;;;16.70
9119;BMP180;4594;50.994;7.126;2023-02-16T13:01:51;101414.00;;;16.70
9119;BMP180;4594;50.994;7.126;2023-02-16T13:04:43;101419.00;;;16.70
9119;BMP180;4594;50.994;7.126;2023-02-16T13:07:30;101404.00;;;16.70
9119;BMP180;4594;50.994;7.126;2023-02-16T13:13:25;101391.00;;;16.70
9119;BMP180;4594;50.994;7.126;2023-02-16T13:18:54;101369.00;;;16.70
9119;BMP180;4594;50.994;7.126;2023-02-16T13:25:24;101381.00;;;16.70
9119;BMP180;4594;50.994;7.126;2023-02-16T13:34:06;101346.00;;;16.80
9119;BMP180;4594;50.994;7.126;2023-02-16T13:36:51;101364.00;;;16.80
9119;BMP180;4594;50.994;7.126;2023-02-16T13:39:45;101370.00;;;16.80
9119;BMP180;4594;50.994;7.126;2023-02-16T13:45:32;101374.00;;;16.70
9119;BMP180;4594;50.994;7.126;2023-02-16T13:47:59;101376.00;;;16.70
9119;BMP180;4594;50.994;7.126;2023-02-16T13:50:29;101375.00;;;16.80
9119;BMP180;4594;50.994;7.126;2023-02-16T13:53:10;101359.00;;;17.00
9119;BMP180;4594;50.994;7.126;2023-02-16T13:55:40;101357.00;;;17.10
9119;BMP180;4594;50.994;7.126;2023-02-16T14:00:48;101332.00;;;17.30
9119;BMP180;4594;50.994;7.126;2023-02-16T14:05:54;101334.00;;;17.50
9119;BMP180;4594;50.994;7.126;2023-02-16T14:08:40;101319.00;;;17.60
9119;BMP180;4594;50.994;7.126;2023-02-16T14:11:09;101329.00;;;17.60
9119;BMP180;4594;50.994;7.126;2023-02-16T14:16:32;101309.00;;;17.60
9119;BMP180;4594;50.994;7.126;2023-02-16T14:19:15;101321.00;;;17.60
9119;BMP180;4594;50.994;7.126;2023-02-16T14:21:47;101307.00;;;17.60
9119;BMP180;4594;50.994;7.126;2023-02-16T14:24:33;101302.00;;;17.50
9119;BMP180;4594;50.994;7.126;2023-02-16T14:27:10;101305.00;;;17.50
9119;BMP180;4594;50.994;7.126;2023-02-16T14:29:53;101302.00;;;17.50
9119;BMP180;4594;50.994;7.126;2023-02-16T14:32:30;101311.00;;;17.40
9119;BMP180;4594;50.994;7.126;2023-02-16T14:35:18;101295.00;;;17.40
9119;BMP180;4594;50.994;7.126;2023-02-16T14:37:57;101302.00;;;17.40
9119;BMP180;4594;50.994;7.126;2023-02-16T14:40:55;101294.00;;;17.40
9119;BMP180;4594;50.994;7.126;2023-02-16T14:43:33;101286.00;;;17.40
9119;BMP180;4594;50.994;7.126;2023-02-16T14:49:23;101299.00;;;17.50
9119;BMP180;4594;50.994;7.126;2023-02-16T14:58:29;101302.00;;;17.40
9119;BMP180;4594;50.994;7.126;2023-02-16T15:01:10;101293.00;;;17.40
9119;BMP180;4594;50.994;7.126;2023-02-16T15:03:48;101284.00;;;17.40
9119;BMP180;4594;50.994;7.126;2023-02-16T15:06:30;101282.00;;;17.30
9119;BMP180;4594;50.994;7.126;2023-02-16T15:09:04;101298.00;;;17.30
9119;BMP180;4594;50.994;7.126;2023-02-16T15:11:37;101291.00;;;17.30
9119;BMP180;4594;50.994;7.126;2023-02-16T15:14:27;101282.00;;;17.30
9119;BMP180;4594;50.994;7.126;2023-02-16T15:16:56;101283.00;;;17.40
9119;BMP180;4594;50.994;7.126;2023-02-16T15:19:28;101286.00;;;17.40
9119;BMP180;4594;50.994;7.126;2023-02-16T15:22:19;101295.00;;;17.40
9119;BMP180;4594;50.994;7.126;2023-02-16T15:25:04;101287.00;;;17.30
9119;BMP180;4594;50.994;7.126;2023-02-16T15:27:32;101274.00;;;17.30
9119;BMP180;4594;50.994;7.126;2023-02-16T15:30:19;101276.00;;;17.30
9119;BMP180;4594;50.994;7.126;2023-02-16T15:35:59;101265.00;;;17.10
9119;BMP180;4594;50.994;7.126;2023-02-16T15:38:29;101265.00;;;17.10
9119;BMP180;4594;50.994;7.126;2023-02-16T15:41:03;101261.00;;;17.10
9119;BMP180;4594;50.994;7.126;2023-02-16T15:43:47;101247.00;;;17.10
9119;BMP180;4594;50.994;7.126;2023-02-16T15:48:57;101259.00;;;17.00
9119;BMP180;4594;50.994;7.126;2023-02-16T15:51:29;101253.00;;;17.00
9119;BMP180;4594;50.994;7.126;2023-02-16T15:54:18;101261.00;;;16.90
9119;BMP180;4594;50.994;7.126;2023-02-16T15:56:49;101233.00;;;16.90
9119;BMP180;4594;50.994;7.126;2023-02-16T15:59:34;101254.00;;;16.80
9119;BMP180;4594;50.994;7.126;2023-02-16T16:02:18;101252.00;;;16.80
9119;BMP180;4594;50.994;7.126;2023-02-16T16:04:49;101259.00;;;16.70
9119;BMP180;4594;50.994;7.126;2023-02-16T16:07:26;101260.00;;;16.70
9119;BMP180;4594;50.994;7.126;2023-02-16T16:09:55;101252.00;;;16.70
9119;BMP180;4594;50.994;7.126;2023-02-16T16:12:22;101262.00;;;16.70
9119;BMP180;4594;50.994;7.126;2023-02-16T16:14:57;101259.00;;;16.60
9119;BMP180;4594;50.994;7.126;2023-02-16T16:17:29;101250.00;;;16.60
9119;BMP180;4594;50.994;7.126;2023-02-16T16:19:57;101266.00;;;16.50
9119;BMP180;4594;50.994;7.126;2023-02-16T16:22:35;101258.00;;;16.50
9119;BMP180;4594;50.994;7.126;2023-02-16T16:27:53;101266.00;;;16.50
9119;BMP180;4594;50.994;7.126;2023-02-16T16:32:45;101255.00;;;16.40
9119;BMP180;4594;50.994;7.126;2023-02-16T16:35:33;101266.00;;;16.40
9119;BMP180;4594;50.994;7.126;2023-02-16T16:37:59;101261.00;;;16.30
9119;BMP180;4594;50.994;7.126;2023-02-16T16:40:33;101264.00;;;16.30
9119;BMP180;4594;50.994;7.126;2023-02-16T16:45:45;101275.00;;;16.20
9119;BMP180;4594;50.994;7.126;2023-02-16T16:48:31;101258.00;;;16.20
9119;BMP180;4594;50.994;7.126;2023-02-16T16:51:18;101261.00;;;16.10
9119;BMP180;4594;50.994;7.126;2023-02-16T16:54:00;101278.00;;;16.10
9119;BMP180;4594;50.994;7.126;2023-02-16T16:56:28;101264.00;;;16.10
9119;BMP180;4594;50.994;7.126;2023-02-16T16:58:57;101266.00;;;16.10
9119;BMP180;4594;50.994;7.126;2023-02-16T17:01:25;101276.00;;;16.10
9119;BMP180;4594;50.994;7.126;2023-02-16T17:03:51;101260.00;;;16.10
9119;BMP180;4594;50.994;7.126;2023-02-16T17:06:17;101268.00;;;16.00
9119;BMP180;4594;50.994;7.126;2023-02-16T17:08:44;101250.00;;;16.00
9119;BMP180;4594;50.994;7.126;2023-02-16T17:11:32;101258.00;;;15.90
9119;BMP180;4594;50.994;7.126;2023-02-16T17:14:16;101252.00;;;15.90
9119;BMP180;4594;50.994;7.126;2023-02-16T17:16:46;101255.00;;;15.90
9119;BMP180;4594;50.994;7.126;2023-02-16T17:19:17;101270.00;;;15.90
9119;BMP180;4594;50.994;7.126;2023-02-16T17:21:44;101250.00;;;15.80
9119;BMP180;4594;50.994;7.126;2023-02-16T17:24:11;101254.00;;;15.80
9119;BMP180;4594;50.994;7.126;2023-02-16T17:26:37;101255.00;;;15.80
9119;BMP180;4594;50.994;7.126;2023-02-16T17:29:04;101266.00;;;15.80
9119;BMP180;4594;50.994;7.126;2023-02-16T17:31:31;101263.00;;;15.80
9119;BMP180;4594;50.994;7.126;2023-02-16T17:33:57;101264.00;;;15.80
9119;BMP180;4594;50.994;7.126;2023-02-16T17:36:26;101261.00;;;15.80